Time;durP1;ratioP1;P1;durP2;ratioP2;P2;SDS_P1;SDS_P2;PMS_P1;PMS_P2;Temp;Humidity;BMP_temperature;BMP_pressure;BME280_temperature;BME280_humidity;BME280_pressure;Samples;Min_cycle;Max_cycle;Signal;HPM_P1;HPM_P2
2022/06/12 00:02:00;;;;;;;7.30;5.10;;;;;;;21.37;83.74;153026.72;1682055;85;21017;-62
2022/06/12 00:04:28;;;;;;;7.15;4.92;;;;;;;21.33;83.94;153016.22;1682095;85;22149;-62
2022/06/12 00:06:54;;;;;;;11.03;4.97;;;;;;;21.28;84.30;153003.16;1681943;85;21063;-63
2022/06/12 00:09:21;;;;;;;7.60;4.90;;;;;;;21.24;84.46;152994.05;1682224;84;21035;-63
2022/06/12 00:11:50;;;;;;;7.30;5.15;;;;;;;21.21;84.42;152986.16;1682087;85;21056;-62
2022/06/12 00:14:19;;;;;;;8.05;4.85;;;;;;;21.22;84.49;152987.48;1682035;84;20957;-63
2022/06/12 00:16:46;;;;;;;5.97;5.20;;;;;;;21.26;84.16;152997.94;1682154;83;21266;-63
2022/06/12 00:19:14;;;;;;;7.10;4.80;;;;;;;21.31;83.45;153011.00;1681842;85;21000;-63
2022/06/12 00:21:42;;;;;;;5.08;4.50;;;;;;;21.34;83.03;153018.88;1681943;83;21074;-63
2022/06/12 00:24:13;;;;;;;5.17;4.45;;;;;;;21.40;82.71;153034.55;1681990;83;21458;-62
2022/06/12 00:26:44;;;;;;;8.35;4.40;;;;;;;21.46;82.39;153050.22;1682096;85;21123;-62
2022/06/12 00:29:22;;;;;;;5.33;4.47;;;;;;;21.55;81.77;153071.13;1681797;85;21108;-63
2022/06/12 00:32:06;;;;;;;5.87;4.67;;;;;;;21.59;81.37;153081.63;1681999;83;21509;-63
2022/06/12 00:34:38;;;;;;;6.20;4.12;;;;;;;21.60;81.14;153084.23;1681767;83;21534;-62
2022/06/12 00:37:05;;;;;;;7.17;5.25;;;;;;;21.65;81.06;153096.02;1682117;83;21077;-62
2022/06/12 00:39:33;;;;;;;5.90;4.85;;;;;;;21.71;80.41;153113.02;1682078;85;20981;-63
2022/06/12 00:42:01;;;;;;;7.75;5.00;;;;;;;21.75;79.96;153123.47;1682115;83;20962;-63
2022/06/12 00:44:34;;;;;;;6.33;4.90;;;;;;;21.75;79.98;153122.19;1681994;85;21061;-63
2022/06/12 00:47:04;;;;;;;8.73;4.92;;;;;;;21.69;80.35;153107.80;1681915;83;21092;-63
2022/06/12 00:49:42;;;;;;;4.75;4.30;;;;;;;21.65;80.38;153097.34;1682226;83;20902;-64
2022/06/12 00:52:28;;;;;;;6.83;4.85;;;;;;;21.64;80.48;153093.34;1681946;85;21110;-63
2022/06/12 00:55:04;;;;;;;4.95;4.40;;;;;;;21.63;80.19;153092.06;1681980;85;21529;-63
2022/06/12 00:57:31;;;;;;;7.50;4.40;;;;;;;21.65;79.99;153097.34;1681751;83;21029;-62
2022/06/12 01:00:03;;;;;;;5.70;4.70;;;;;;;21.61;80.05;153086.84;1693170;83;21047;-63
2022/06/12 01:02:33;;;;;;;6.05;4.80;;;;;;;21.61;80.19;153088.13;1696535;84;20964;-63
2022/06/12 01:07:51;;;;;;;6.62;5.03;;;;;;;21.54;80.90;153068.50;1696471;84;21141;-63
2022/06/12 01:10:19;;;;;;;6.95;4.92;;;;;;;21.45;81.37;153047.61;1696453;83;21126;-63
2022/06/12 01:12:50;;;;;;;6.60;5.10;;;;;;;21.39;81.55;153031.94;1696484;83;21505;-63
2022/06/12 01:15:23;;;;;;;5.72;4.90;;;;;;;21.38;81.90;153028.00;1658492;85;21025;-63
2022/06/12 01:17:51;;;;;;;5.33;4.83;;;;;;;21.37;82.23;153026.72;1630321;88;21151;-63
2022/06/12 01:20:24;;;;;;;9.50;4.95;;;;;;;21.33;81.99;153016.22;1630141;88;21279;-63
2022/06/12 01:23:32;;;;;;;7.92;4.90;;;;;;;21.34;81.70;153018.88;1630218;88;21081;-63
2022/06/12 01:26:13;;;;;;;7.22;4.92;;;;;;;21.40;81.33;153034.55;1630398;88;21048;-63
2022/06/12 01:29:01;;;;;;;6.97;4.62;;;;;;;21.47;80.91;153052.83;1630536;87;21542;-63
2022/06/12 01:31:54;;;;;;;5.78;5.17;;;;;;;21.50;80.65;153058.06;1612131;88;21053;-64
2022/06/12 01:34:53;;;;;;;6.35;5.00;;;;;;;21.52;80.38;153063.28;1630389;86;21745;-63
2022/06/12 01:37:37;;;;;;;8.65;5.33;;;;;;;21.51;80.83;153062.00;1630439;87;21000;-63
2022/06/12 01:40:37;;;;;;;6.78;4.72;;;;;;;21.47;80.71;153052.83;1629940;86;21566;-63
2022/06/12 01:43:17;;;;;;;8.25;4.78;;;;;;;21.42;80.94;153039.78;1629929;86;21556;-63
2022/06/12 01:46:15;;;;;;;8.00;5.35;;;;;;;21.32;81.67;153013.61;1630498;87;21057;-64
2022/06/12 01:49:05;;;;;;;8.45;5.15;;;;;;;21.27;82.20;153000.55;1630387;87;21255;-64
2022/06/12 01:51:40;;;;;;;7.80;5.22;;;;;;;21.25;82.63;152996.66;1630483;88;21005;-64
2022/06/12 01:54:27;;;;;;;7.28;5.28;;;;;;;21.20;82.98;152982.27;1630144;88;21028;-64
2022/06/12 01:57:07;;;;;;;6.15;5.42;;;;;;;21.11;83.71;152960.05;1630084;86;21052;-63
2022/06/12 01:59:43;;;;;;;6.00;5.40;;;;;;;20.99;84.56;152929.98;1632106;86;21072;-64
2022/06/12 02:02:25;;;;;;;7.53;5.80;;;;;;;20.92;85.39;152911.70;1634313;86;21490;-63
2022/06/12 02:05:23;;;;;;;8.75;5.87;;;;;;;20.85;85.82;152894.70;1634591;86;21043;-65
2022/06/12 02:08:08;;;;;;;7.75;5.45;;;;;;;20.77;86.34;152875.05;1634351;87;21080;-64
2022/06/12 02:10:52;;;;;;;8.65;5.20;;;;;;;20.72;86.83;152862.00;1662560;86;21012;-64
2022/06/12 02:13:24;;;;;;;8.33;5.80;;;;;;;20.72;86.98;152862.00;1691280;84;21102;-64
2022/06/12 02:16:06;;;;;;;9.40;6.15;;;;;;;20.73;87.06;152864.61;1638364;87;21320;-64
2022/06/12 02:18:42;;;;;;;10.35;5.87;;;;;;;20.70;87.29;152856.78;1691699;84;21059;-63
2022/06/12 02:21:48;;;;;;;8.63;6.00;;;;;;;20.67;87.74;152848.89;1691356;84;21059;-63
2022/06/12 02:24:31;;;;;;;7.00;5.80;;;;;;;20.68;87.99;152851.55;1691469;84;21029;-64
2022/06/12 02:27:19;;;;;;;11.60;6.08;;;;;;;20.72;87.94;152862.00;1691828;83;20957;-64
2022/06/12 02:29:55;;;;;;;7.58;5.62;;;;;;;20.76;88.00;152872.44;1672904;83;21881;-63
2022/06/12 02:32:34;;;;;;;7.55;5.67;;;;;;;20.87;87.90;152901.22;1691519;83;20999;-64
2022/06/12 02:35:06;;;;;;;7.25;5.35;;;;;;;20.97;87.43;152924.75;1691555;84;21502;-63
2022/06/12 02:37:41;;;;;;;12.18;5.60;;;;;;;21.01;86.66;152935.20;1691622;84;20973;-58
2022/06/12 02:40:17;;;;;;;7.70;5.45;;;;;;;21.06;86.25;152946.98;1664260;84;21500;-58
2022/06/12 02:42:45;;;;;;;12.30;5.47;;;;;;;21.11;85.77;152961.38;1691871;84;21806;-58
2022/06/12 02:45:20;;;;;;;6.20;5.05;;;;;;;21.16;85.24;152974.42;1691409;84;21077;-58
2022/06/12 02:47:48;;;;;;;7.42;5.75;;;;;;;21.23;85.07;152990.09;1691746;84;21028;-58
2022/06/12 02:50:17;;;;;;;7.10;5.35;;;;;;;21.25;85.21;152995.33;1691382;83;21020;-58
2022/06/12 02:53:24;;;;;;;9.78;5.15;;;;;;;21.22;85.41;152987.48;1691434;84;21043;-57
2022/06/12 02:56:32;;;;;;;10.03;5.50;;;;;;;21.20;85.67;152982.27;1691442;84;21256;-57
2022/06/12 02:59:25;;;;;;;7.20;6.45;;;;;;;21.22;85.92;152988.81;1689664;83;21039;-57
2022/06/12 03:02:24;;;;;;;6.05;5.22;;;;;;;21.21;85.44;152984.88;1673835;84;21037;-57
2022/06/12 03:05:08;;;;;;;8.33;5.67;;;;;;;21.25;85.25;152995.33;1673997;85;21025;-58
2022/06/12 03:07:37;;;;;;;7.72;5.50;;;;;;;21.36;84.66;153024.09;1673947;85;21025;-58
2022/06/12 03:10:07;;;;;;;7.85;5.53;;;;;;;21.45;84.50;153047.61;1674160;84;21232;-58
2022/06/12 03:12:35;;;;;;;8.58;5.70;;;;;;;21.52;84.21;153063.28;1673858;84;20986;-58
2022/06/12 03:15:06;;;;;;;9.00;5.42;;;;;;;21.59;83.75;153082.91;1674035;85;21112;-58
2022/06/12 03:17:33;;;;;;;9.78;5.53;;;;;;;21.69;82.97;153107.80;1655107;85;21069;-58
2022/06/12 03:20:00;;;;;;;9.48;5.42;;;;;;;21.80;82.41;153133.97;1674281;85;21035;-57
2022/06/12 03:22:38;;;;;;;7.28;5.33;;;;;;;21.90;82.08;153160.09;1673995;84;21283;-58
2022/06/12 03:25:25;;;;;;;8.08;5.10;;;;;;;22.00;81.82;153186.28;1674216;85;21097;-57
2022/06/12 03:28:15;;;;;;;7.28;5.22;;;;;;;22.12;81.25;153215.02;1674054;85;21009;-58
2022/06/12 03:31:12;;;;;;;8.00;5.25;;;;;;;22.21;80.41;153238.53;1674014;84;20965;-58
2022/06/12 03:34:03;;;;;;;9.93;5.60;;;;;;;22.29;79.92;153259.50;1674060;85;21399;-58
2022/06/12 03:36:40;;;;;;;8.93;5.53;;;;;;;22.47;79.48;153304.03;1674004;85;21244;-58
2022/06/12 03:39:18;;;;;;;10.78;5.00;;;;;;;22.59;78.45;153335.39;1673830;84;21132;-58
2022/06/12 03:42:02;;;;;;;6.08;4.95;;;;;;;22.68;77.81;153356.34;1673928;84;21071;-58
2022/06/12 03:44:37;;;;;;;8.53;5.10;;;;;;;22.75;77.32;153375.94;1674076;85;21648;-57
2022/06/12 03:47:21;;;;;;;6.17;4.90;;;;;;;22.86;76.84;153403.41;1674127;85;21631;-58
2022/06/12 03:50:15;;;;;;;7.75;4.95;;;;;;;22.95;76.13;153424.38;1673932;85;21510;-58
2022/06/12 03:52:50;;;;;;;7.92;4.62;;;;;;;23.07;75.33;153455.75;1638837;85;21600;-58
2022/06/12 03:57:50;;;;;;;5.75;4.30;;;;;;;23.16;74.48;153479.33;1673941;85;21041;-58
2022/06/12 03:57:56;;;;;;;8.05;4.05;;;;;;;23.28;73.22;153508.14;1674662;84;21096;-57
2022/06/12 04:00:34;;;;;;;5.03;3.65;;;;;;;23.43;71.91;153547.42;1673868;85;21087;-57
2022/06/12 04:03:15;;;;;;;6.50;4.00;;;;;;;23.58;70.65;153584.09;1673832;84;21326;-58
2022/06/12 04:05:46;;;;;;;5.87;4.00;;;;;;;23.78;69.58;153633.83;1662421;85;21085;-57
2022/06/12 04:08:20;;;;;;;7.83;4.00;;;;;;;23.98;68.46;153684.88;1673890;84;21101;-57
2022/06/12 04:10:47;;;;;;;5.67;3.45;;;;;;;24.18;67.83;153737.28;1674070;85;21056;-57
2022/06/12 04:13:18;;;;;;;7.58;3.90;;;;;;;24.39;67.02;153788.34;1673874;85;21056;-58
2022/06/12 04:16:02;;;;;;;4.40;3.80;;;;;;;24.54;65.92;153827.64;1674262;84;21180;-57
2022/06/12 04:18:30;;;;;;;5.87;4.08;;;;;;;24.69;65.40;153864.33;1673717;85;21073;-57
2022/06/12 04:21:04;;;;;;;7.40;4.10;;;;;;;24.87;64.57;153911.53;1674038;84;21060;-58
2022/06/12 04:24:01;;;;;;;;;;;;;;;25.05;63.58;153956.03;1676566;85;21029;-57
2022/06/12 04:26:47;;;;;;;7.45;3.52;;;;;;;25.18;62.03;153990.13;1640974;87;20194;-58
2022/06/12 04:29:22;;;;;;;10.05;3.70;;;;;;;25.29;61.14;154017.64;1674480;84;21931;-57
2022/06/12 04:31:52;;;;;;;5.75;3.20;;;;;;;25.44;61.01;154055.62;1673849;84;21467;-59
2022/06/12 04:34:35;;;;;;;7.28;3.45;;;;;;;25.58;60.00;154091.05;1654824;85;21052;-57
2022/06/12 04:37:18;;;;;;;4.70;3.00;;;;;;;25.67;58.98;154113.33;1674073;85;21044;-58
2022/06/12 04:39:45;;;;;;;3.83;2.72;;;;;;;25.74;57.89;154131.66;1673983;84;21097;-58
2022/06/12 04:42:17;;;;;;;6.40;2.92;;;;;;;25.83;57.00;154152.66;1673944;85;21240;-57
2022/06/12 04:44:46;;;;;;;6.28;3.15;;;;;;;25.95;56.36;154184.09;1673857;84;21505;-58
2022/06/12 04:47:15;;;;;;;7.67;3.00;;;;;;;26.10;55.71;154220.81;1673843;84;21054;-58
2022/06/12 04:49:43;;;;;;;5.90;3.12;;;;;;;26.22;55.43;154252.34;1674117;85;21678;-58
2022/06/12 04:52:11;;;;;;;6.97;2.80;;;;;;;26.35;54.97;154285.11;1674033;84;21107;-58
2022/06/12 04:54:39;;;;;;;3.27;2.60;;;;;;;26.48;54.13;154317.87;1673819;85;21802;-57
2022/06/12 04:57:06;;;;;;;6.15;3.30;;;;;;;26.59;53.91;154346.70;1674026;84;20981;-57
2022/06/12 04:59:35;;;;;;;6.22;2.85;;;;;;;26.70;53.00;154372.95;1674540;85;21585;-57
2022/06/12 05:02:02;;;;;;;5.10;2.72;;;;;;;26.78;52.89;154392.63;1683308;85;21076;-57
2022/06/12 05:04:30;;;;;;;8.55;2.77;;;;;;;26.92;52.45;154428.08;1683432;85;21104;-57
2022/06/12 05:06:57;;;;;;;7.78;2.25;;;;;;;27.05;51.51;154462.14;1683471;83;21243;-57
2022/06/12 05:09:29;;;;;;;5.20;2.30;;;;;;;27.10;50.82;154473.97;1683206;83;21081;-57
2022/06/12 05:11:56;;;;;;;4.72;2.70;;;;;;;27.13;50.32;154483.16;1683309;83;21028;-57
2022/06/12 05:14:23;;;;;;;4.00;2.25;;;;;;;27.19;49.93;154497.59;1683314;85;21032;-57
2022/06/12 05:16:57;;;;;;;5.80;2.80;;;;;;;27.24;49.79;154510.70;1683360;85;21021;-57
2022/06/12 05:19:28;;;;;;;5.33;2.35;;;;;;;27.30;50.03;154525.09;1683079;83;21865;-57
2022/06/12 05:21:55;;;;;;;5.42;2.70;;;;;;;27.39;49.50;154548.73;1683297;83;21486;-58
2022/06/12 05:24:22;;;;;;;4.22;2.50;;;;;;;27.44;49.33;154560.55;1682980;85;21044;-59
2022/06/12 05:26:50;;;;;;;6.08;2.77;;;;;;;27.49;49.26;154572.31;1683062;85;21088;-58
2022/06/12 05:29:22;;;;;;;7.53;2.77;;;;;;;27.51;49.43;154577.56;1683344;83;21025;-58
2022/06/12 05:31:50;;;;;;;4.85;3.08;;;;;;;27.54;49.62;154585.53;1680698;84;21225;-58
2022/06/12 05:34:17;;;;;;;4.47;3.10;;;;;;;27.56;50.08;154590.78;1683175;85;21030;-57
2022/06/12 05:36:45;;;;;;;5.12;2.83;;;;;;;27.64;50.17;154610.47;1683389;83;21096;-58
2022/06/12 05:39:12;;;;;;;5.30;2.60;;;;;;;27.63;50.12;154609.13;1683264;83;21441;-58
2022/06/12 05:41:39;;;;;;;6.35;3.02;;;;;;;27.60;49.90;154601.25;1683430;85;20994;-57
2022/06/12 05:44:06;;;;;;;5.90;3.20;;;;;;;27.55;49.25;154588.16;1683308;85;21938;-57
2022/06/12 05:46:34;;;;;;;4.90;2.70;;;;;;;27.49;49.31;154573.66;1683352;83;21064;-58
2022/06/12 05:49:01;;;;;;;7.47;2.65;;;;;;;27.48;49.48;154569.70;1683321;85;21060;-58
2022/06/12 05:51:28;;;;;;;3.65;2.95;;;;;;;27.50;49.27;154574.94;1683378;85;21068;-58
2022/06/12 05:53:55;;;;;;;3.83;2.27;;;;;;;27.53;49.39;154582.91;1683400;85;21607;-57
2022/06/12 05:56:24;;;;;;;4.03;2.47;;;;;;;27.64;49.16;154611.75;1683415;84;21169;-57
2022/06/12 05:58:52;;;;;;;6.55;2.80;;;;;;;27.78;49.08;154647.16;1683490;83;21060;-59
2022/06/12 06:01:20;;;;;;;6.42;2.50;;;;;;;27.83;48.17;154660.27;1677347;85;21411;-59
2022/06/12 06:03:48;;;;;;;5.90;2.72;;;;;;;27.90;47.40;154677.34;1674044;84;21064;-57
2022/06/12 06:06:20;;;;;;;7.10;2.58;;;;;;;28.02;47.07;154708.84;1674163;84;20987;-58
2022/06/12 06:08:50;;;;;;;4.05;2.30;;;;;;;28.14;46.13;154737.69;1674125;84;21211;-58
2022/06/12 06:11:18;;;;;;;6.87;2.62;;;;;;;28.26;45.62;154767.94;1673998;84;21073;-58
2022/06/12 06:13:46;;;;;;;6.22;2.47;;;;;;;28.36;44.95;154792.88;1673953;85;21017;-58
2022/06/12 06:16:13;;;;;;;3.72;2.50;;;;;;;28.41;45.12;154807.31;1674008;85;21076;-58
2022/06/12 06:18:40;;;;;;;8.53;2.75;;;;;;;28.47;44.97;154821.77;1674143;85;21017;-58
2022/06/12 06:21:08;;;;;;;7.40;2.12;;;;;;;28.52;45.12;154834.88;1673982;85;21295;-58
2022/06/12 06:23:36;;;;;;;5.28;2.55;;;;;;;28.59;45.34;154851.95;1673896;85;21431;-59
2022/06/12 06:26:03;;;;;;;4.58;2.30;;;;;;;28.70;45.39;154879.52;1674143;84;21000;-59
2022/06/12 06:28:30;;;;;;;5.92;2.40;;;;;;;28.84;45.19;154916.28;1674079;85;21037;-58
2022/06/12 06:30:58;;;;;;;4.62;2.22;;;;;;;28.95;44.76;154942.58;1674144;84;20966;-58
2022/06/12 06:33:25;;;;;;;4.22;2.77;;;;;;;29.05;44.22;154968.81;1674045;85;21160;-58
2022/06/12 06:35:53;;;;;;;3.80;2.58;;;;;;;29.16;44.21;154997.72;1673973;84;21500;-59
2022/06/12 06:38:20;;;;;;;4.75;2.77;;;;;;;29.20;44.55;155005.59;1674195;84;21499;-58
2022/06/12 06:40:47;;;;;;;7.83;3.02;;;;;;;29.22;44.94;155010.84;1674010;85;21084;-58
2022/06/12 06:43:14;;;;;;;5.78;2.42;;;;;;;29.34;44.57;155041.03;1673991;84;21089;-59
2022/06/12 06:48:28;;;;;;;4.03;2.37;;;;;;;29.38;43.97;155052.88;1674043;84;21089;-59
2022/06/12 06:50:55;;;;;;;6.85;2.75;;;;;;;29.37;44.05;155050.25;1674110;84;21128;-59
2022/06/12 06:53:22;;;;;;;6.75;2.80;;;;;;;29.41;43.38;155060.78;1674022;84;21069;-58
2022/06/12 06:55:50;;;;;;;7.05;3.37;;;;;;;29.43;43.48;155066.03;1673979;85;20981;-59
2022/06/12 06:58:21;;;;;;;6.53;3.00;;;;;;;29.50;43.89;155081.78;1674015;85;21244;-58
2022/06/12 07:00:49;;;;;;;7.97;2.92;;;;;;;29.54;44.35;155092.33;1673901;84;21462;-58
2022/06/12 07:03:16;;;;;;;4.10;2.83;;;;;;;29.66;43.28;155122.53;1673937;85;21116;-58
2022/06/12 07:05:44;;;;;;;6.05;2.75;;;;;;;29.72;41.73;155138.28;1673970;85;20997;-58
2022/06/12 07:08:12;;;;;;;6.60;2.60;;;;;;;29.71;41.14;155136.94;1673996;85;21100;-58
2022/06/12 07:10:39;;;;;;;9.73;2.72;;;;;;;29.71;42.38;155136.94;1673874;85;21235;-58
2022/06/12 07:13:06;;;;;;;3.47;3.05;;;;;;;29.73;42.69;155142.25;1673844;84;21538;-57
2022/06/12 07:15:34;;;;;;;6.28;3.20;;;;;;;29.74;42.69;155143.53;1674126;85;21152;-58
2022/06/12 07:18:04;;;;;;;8.40;3.40;;;;;;;29.74;41.72;155143.53;1674175;85;20973;-57
2022/06/12 07:20:35;;;;;;;6.80;3.50;;;;;;;29.65;41.21;155121.19;1673971;85;20941;-58
2022/06/12 07:23:03;;;;;;;8.63;4.00;;;;;;;29.64;41.79;155118.56;1674000;85;21208;-58
2022/06/12 07:25:33;;;;;;;8.75;3.58;;;;;;;29.70;41.79;155133.03;1673852;85;21418;-59
2022/06/12 07:28:00;;;;;;;8.85;3.62;;;;;;;29.78;41.16;155154.03;1674023;85;21486;-58
2022/06/12 07:30:28;;;;;;;8.85;3.22;;;;;;;29.88;41.01;155178.98;1674018;85;21089;-58
2022/06/12 07:32:56;;;;;;;4.75;3.58;;;;;;;29.92;41.06;155188.19;1673969;84;21482;-58
2022/06/12 07:35:23;;;;;;;11.35;3.70;;;;;;;29.96;41.00;155200.03;1674031;84;22097;-59
2022/06/12 07:37:49;;;;;;;7.62;3.70;;;;;;;29.94;41.69;155194.73;1673957;85;21076;-58
2022/06/12 07:40:22;;;;;;;9.90;3.67;;;;;;;30.02;41.00;155214.50;1673940;85;21068;-59
2022/06/12 07:42:49;;;;;;;14.78;4.70;;;;;;;30.07;41.07;155226.33;1674375;84;21060;-58
2022/06/12 07:45:16;;;;;;;9.05;3.85;;;;;;;30.20;40.44;155260.50;1673885;84;21025;-59
2022/06/12 07:47:44;;;;;;;9.33;4.72;;;;;;;30.26;39.72;155276.25;1673976;85;21300;-59
2022/06/12 07:50:11;;;;;;;9.35;5.03;;;;;;;30.29;38.83;155284.13;1673918;85;21045;-59
2022/06/12 07:52:40;;;;;;;9.90;5.42;;;;;;;30.28;38.49;155281.50;1674117;84;21068;-60
2022/06/12 07:55:09;;;;;;;9.88;5.15;;;;;;;30.21;37.76;155263.13;1674118;85;21487;-59
2022/06/12 07:57:38;;;;;;;8.00;5.00;;;;;;;30.03;36.44;155215.83;1673944;85;21041;-59
2022/06/12 08:00:08;;;;;;;10.98;5.35;;;;;;;29.84;36.03;155168.48;1674086;85;21486;-58
2022/06/12 08:02:37;;;;;;;11.75;4.85;;;;;;;29.75;35.65;155146.16;1689980;84;21071;-59
2022/06/12 08:05:06;;;;;;;8.10;5.35;;;;;;;29.83;34.60;155167.16;1691408;84;21059;-59
2022/06/12 08:07:34;;;;;;;12.45;5.60;;;;;;;29.92;34.89;155188.19;1691490;84;21068;-58
2022/06/12 08:10:03;;;;;;;12.33;4.70;;;;;;;29.94;34.63;155194.73;1691550;84;21088;-59
2022/06/12 08:12:37;;;;;;;10.25;4.75;;;;;;;29.99;33.72;155207.91;1691742;84;21687;-59
2022/06/12 08:15:09;;;;;;;8.08;5.03;;;;;;;30.07;33.65;155226.33;1691327;83;21009;-58
2022/06/12 08:17:36;;;;;;;9.15;5.00;;;;;;;30.08;33.63;155228.95;1691531;84;21322;-57
2022/06/12 08:23:33;;;;;;;9.73;5.12;;;;;;;30.19;34.20;155256.53;1691394;83;21612;-57
2022/06/12 08:26:07;;;;;;;9.93;5.42;;;;;;;30.31;34.53;155288.09;1690869;84;21261;-64
2022/06/12 08:28:45;;;;;;;12.95;5.47;;;;;;;30.48;34.53;155330.09;1691219;84;21067;-64
2022/06/12 08:31:17;;;;;;;7.22;4.60;;;;;;;30.46;34.18;155326.19;1691125;83;21577;-64
2022/06/12 08:33:46;;;;;;;16.75;5.95;;;;;;;30.48;33.00;155331.44;1690619;84;21481;-64
2022/06/12 08:36:14;;;;;;;13.00;5.05;;;;;;;30.55;32.94;155349.81;1691271;84;21032;-64
2022/06/12 08:38:41;;;;;;;7.35;5.17;;;;;;;30.65;33.25;155374.84;1691826;84;21213;-64
2022/06/12 08:41:33;;;;;;;8.33;4.72;;;;;;;30.80;33.16;155412.94;1691689;84;21017;-65
2022/06/12 08:44:52;;;;;;;10.28;4.85;;;;;;;30.87;32.84;155431.38;1691779;84;21037;-64
2022/06/12 08:47:46;;;;;;;10.58;4.75;;;;;;;30.97;32.43;155455.00;1691410;83;21099;-64
2022/06/12 08:50:41;;;;;;;7.67;4.90;;;;;;;31.06;32.58;155478.69;1691711;84;21651;-64
2022/06/12 08:53:26;;;;;;;6.08;4.45;;;;;;;31.10;31.84;155489.19;1691711;84;21461;-64
2022/06/12 08:56:40;;;;;;;7.12;4.78;;;;;;;31.06;31.93;155478.69;1691235;84;21055;-64
2022/06/12 08:59:16;;;;;;;8.03;4.45;;;;;;;31.11;31.63;155491.81;1691594;84;21071;-64
2022/06/12 09:01:45;;;;;;;12.88;5.25;;;;;;;31.12;32.18;155494.44;1692552;84;21496;-64
2022/06/12 09:04:15;;;;;;;8.28;4.60;;;;;;;31.23;32.54;155520.75;1694033;84;21048;-63
2022/06/12 09:07:06;;;;;;;6.97;4.67;;;;;;;31.33;32.17;155545.73;1693727;83;21326;-63
2022/06/12 09:09:54;;;;;;;10.23;4.92;;;;;;;31.35;31.93;155550.98;1694059;84;21032;-64
2022/06/12 09:12:35;;;;;;;15.93;5.20;;;;;;;31.40;31.67;155565.47;1693804;84;21052;-63
2022/06/12 09:15:16;;;;;;;11.00;4.90;;;;;;;31.43;31.88;155573.34;1693787;84;21571;-63
2022/06/12 09:18:23;;;;;;;7.10;5.00;;;;;;;31.41;32.01;155568.09;1694000;84;21023;-63
2022/06/12 09:21:31;;;;;;;7.87;4.80;;;;;;;31.35;32.09;155550.98;1693860;83;21563;-63
2022/06/12 09:24:16;;;;;;;8.85;4.90;;;;;;;31.25;31.95;155526.00;1693170;83;21429;-63
2022/06/12 09:27:18;;;;;;;7.47;5.30;;;;;;;31.15;32.25;155502.33;1693757;84;21422;-64
2022/06/12 09:30:14;;;;;;;9.90;5.08;;;;;;;31.21;31.96;155515.50;1693802;84;21115;-63
2022/06/12 09:32:56;;;;;;;11.08;5.00;;;;;;;31.14;32.24;155499.69;1693143;83;21087;-63
2022/06/12 09:36:10;;;;;;;13.03;5.65;;;;;;;31.18;32.61;155507.58;1693867;84;21130;-63
2022/06/12 09:39:03;;;;;;;9.20;4.87;;;;;;;31.24;33.33;155523.39;1693735;84;21103;-65
2022/06/12 09:42:04;;;;;;;9.25;5.35;;;;;;;31.37;34.28;155557.58;1694011;83;21059;-63
2022/06/12 09:44:39;;;;;;;8.13;5.20;;;;;;;31.49;35.56;155586.47;1674864;84;21084;-64
2022/06/12 09:47:16;;;;;;;9.40;5.22;;;;;;;31.40;36.41;155564.17;1693693;84;21051;-64
2022/06/12 09:50:04;;;;;;;10.60;5.22;;;;;;;31.34;33.73;155549.70;1693377;84;21237;-65
2022/06/12 09:52:39;;;;;;;9.95;5.12;;;;;;;31.35;34.89;155552.33;1693689;84;21004;-64
2022/06/12 09:55:22;;;;;;;9.35;5.35;;;;;;;31.42;35.97;155570.72;1693030;84;21024;-64
2022/06/12 09:58:19;;;;;;;10.75;5.37;;;;;;;31.40;36.03;155565.47;1693678;84;21084;-64
2022/06/12 10:00:55;;;;;;;11.60;5.50;;;;;;;31.38;36.23;155558.87;1693229;83;21241;-64
2022/06/12 10:03:31;;;;;;;6.22;4.90;;;;;;;31.29;35.62;155536.56;1652732;85;21439;-64
2022/06/12 10:06:06;;;;;;;7.22;5.60;;;;;;;31.30;34.40;155539.19;1644634;85;21488;-64
2022/06/12 10:08:49;;;;;;;13.35;5.22;;;;;;;31.37;34.23;155557.58;1669928;84;21001;-65
2022/06/12 10:11:24;;;;;;;11.68;4.95;;;;;;;31.34;33.56;155549.70;1644192;85;21159;-64
2022/06/12 10:14:03;;;;;;;9.68;4.92;;;;;;;31.29;33.72;155537.86;1670362;85;21038;-64
2022/06/12 10:16:47;;;;;;;11.75;4.30;;;;;;;31.33;33.29;155547.08;1616721;88;21585;-64
2022/06/12 10:19:35;;;;;;;9.13;4.45;;;;;;;31.31;32.61;155541.81;1670672;85;21060;-63
2022/06/12 10:22:07;;;;;;;7.35;4.65;;;;;;;31.33;32.05;155547.08;1678445;84;21786;-64
2022/06/12 10:24:35;;;;;;;9.15;4.78;;;;;;;31.37;32.16;155556.25;1644626;86;21561;-63
2022/06/12 10:27:06;;;;;;;7.08;4.55;;;;;;;31.41;32.27;155566.80;1670497;84;21053;-64
2022/06/12 10:29:56;;;;;;;6.95;4.80;;;;;;;31.56;32.69;155604.91;1616874;88;21466;-64
2022/06/12 10:32:29;;;;;;;7.78;4.42;;;;;;;31.72;34.17;155645.66;1670285;86;21435;-64
2022/06/12 10:35:15;;;;;;;5.83;4.47;;;;;;;31.77;34.48;155657.56;1644532;87;21008;-64
2022/06/12 10:37:42;;;;;;;6.83;4.00;;;;;;;31.79;32.78;155662.81;1631289;85;21439;-64
2022/06/12 10:40:16;;;;;;;7.62;4.35;;;;;;;31.81;31.06;155668.06;1644694;86;21025;-64
2022/06/12 10:42:55;;;;;;;6.63;4.23;;;;;;;31.82;31.06;155670.69;1670774;86;21885;-63
2022/06/12 10:45:26;;;;;;;6.70;4.15;;;;;;;31.90;31.22;155690.42;1616752;88;21450;-64
2022/06/12 10:47:56;;;;;;;6.25;3.90;;;;;;;31.95;31.74;155704.89;1670378;86;21467;-63
2022/06/12 10:50:31;;;;;;;9.08;3.80;;;;;;;31.98;31.96;155712.78;1644920;86;21573;-64
2022/06/12 10:53:11;;;;;;;6.90;3.90;;;;;;;32.09;31.61;155739.06;1670444;84;21100;-63
2022/06/12 10:56:01;;;;;;;7.30;3.67;;;;;;;32.15;31.18;155754.81;1598915;88;21274;-65
2022/06/12 10:58:46;;;;;;;5.72;3.45;;;;;;;32.16;31.09;155757.45;1670408;86;21051;-63
2022/06/12 11:01:24;;;;;;;8.50;3.55;;;;;;;32.18;31.25;155762.75;1616920;88;21506;-65
2022/06/12 11:04:05;;;;;;;9.55;3.70;;;;;;;32.15;32.30;155754.81;1670408;86;21077;-64
2022/06/12 11:06:50;;;;;;;6.37;3.87;;;;;;;32.07;32.49;155733.80;1616823;87;21086;-64
2022/06/12 11:09:34;;;;;;;8.63;4.08;;;;;;;32.03;32.40;155723.28;1670436;86;21160;-63
2022/06/12 11:12:13;;;;;;;8.50;3.98;;;;;;;32.03;32.68;155724.58;1616849;88;21020;-64
2022/06/12 11:15:35;;;;;;;5.00;3.15;;;;;;;32.04;32.81;155725.92;1656361;86;21022;-64
2022/06/12 11:18:41;;;;;;;4.75;3.30;;;;;;;32.04;32.49;155727.20;1644164;87;21060;-63
2022/06/12 11:21:54;;;;;;;5.67;3.22;;;;;;;32.00;32.54;155718.03;1670751;85;20989;-64
2022/06/12 11:24:29;;;;;;;5.10;3.35;;;;;;;31.90;33.15;155691.70;1644527;87;21298;-64
2022/06/12 11:27:13;;;;;;;6.35;3.65;;;;;;;31.85;33.79;155678.56;1670235;84;20993;-64
2022/06/12 11:29:59;;;;;;;;;;;;;;;31.85;33.64;155678.56;1647008;86;21036;-64
2022/06/12 11:33:00;;;;;;;8.33;3.75;;;;;;;31.85;33.93;155678.56;1670265;84;20196;-65
2022/06/12 11:35:41;;;;;;;8.73;3.47;;;;;;;31.85;33.99;155678.56;1679978;84;21029;-65
2022/06/12 11:38:22;;;;;;;7.03;3.27;;;;;;;31.85;33.77;155679.91;1679814;85;21841;-64
2022/06/12 11:41:00;;;;;;;9.75;3.77;;;;;;;31.87;33.47;155683.83;1667988;85;21067;-64
2022/06/12 11:43:35;;;;;;;9.60;3.70;;;;;;;31.88;33.62;155686.45;1598975;88;21096;-64
2022/06/12 11:46:34;;;;;;;10.40;3.52;;;;;;;31.88;33.78;155686.45;1670062;85;20966;-64
2022/06/12 11:49:19;;;;;;;4.95;3.45;;;;;;;31.82;33.66;155670.69;1617524;84;21478;-64
2022/06/12 11:52:01;;;;;;;9.20;3.33;;;;;;;31.78;33.10;155660.19;1616851;88;21261;-64
2022/06/12 11:55:09;;;;;;;4.83;3.80;;;;;;;31.73;33.35;155649.63;1670249;84;21097;-64
2022/06/12 11:58:01;;;;;;;8.88;3.65;;;;;;;31.78;33.78;155660.19;1679887;85;21517;-65
2022/06/12 12:00:53;;;;;;;11.33;3.83;;;;;;;31.86;33.09;155681.20;1616789;88;21056;-64
2022/06/12 12:03:46;;;;;;;6.45;4.10;;;;;;;31.88;32.82;155686.45;1672673;84;21088;-64
2022/06/12 12:06:55;;;;;;;9.18;3.62;;;;;;;31.88;32.50;155686.45;1673948;84;21451;-64
2022/06/12 12:09:29;;;;;;;7.78;3.70;;;;;;;31.91;31.88;155694.34;1673809;85;21029;-64
2022/06/12 12:12:05;;;;;;;5.45;2.87;;;;;;;31.96;31.58;155706.19;1674060;85;21473;-64
2022/06/12 12:14:36;;;;;;;8.25;3.50;;;;;;;31.99;30.80;155715.41;1673866;85;21519;-64
2022/06/12 12:17:26;;;;;;;8.63;3.87;;;;;;;32.04;31.33;155725.92;1674240;84;21080;-63
2022/06/12 12:19:59;;;;;;;6.12;3.05;;;;;;;32.04;30.50;155727.20;1674166;85;21458;-64